Time;durP1;ratioP1;P1;durP2;ratioP2;P2;SDS_P1;SDS_P2;PMS_P1;PMS_P2;Temp;Humidity;BMP_temperature;BMP_pressure;BME280_temperature;BME280_humidity;BME280_pressure;Samples;Min_cycle;Max_cycle;Signal;HPM_P1;HPM_P2
2022/09/13 00:01:07;;;;;;;;;;;28.50;89.60;;;;;;5024879;28;20220;-59
2022/09/13 00:03:33;;;;;;;;;;;28.40;90.00;;;;;;5024257;28;19944;-62
2022/09/13 00:06:29;;;;;;;;;;;28.50;90.20;;;;;;5016209;28;19952;-61
2022/09/13 00:08:55;;;;;;;;;;;28.40;90.40;;;;;;5005837;28;20086;-59
2022/09/13 00:11:23;;;;;;;;;;;28.30;90.60;;;;;;5025223;28;19913;-56
2022/09/13 00:13:49;;;;;;;;;;;28.20;90.70;;;;;;5020909;28;19913;-59
2022/09/13 00:16:16;;;;;;;;;;;28.20;90.70;;;;;;5017101;28;19909;-61
2022/09/13 00:18:42;;;;;;;;;;;28.20;90.40;;;;;;5013487;28;19906;-62
2022/09/13 00:21:12;;;;;;;;;;;28.20;90.40;;;;;;5015255;28;20145;-59
2022/09/13 00:23:40;;;;;;;;;;;28.20;90.60;;;;;;5024622;28;20198;-59
2022/09/13 00:26:10;;;;;;;;;;;28.10;90.60;;;;;;5025626;28;19976;-63
2022/09/13 00:28:37;;;;;;;;;;;28.10;90.70;;;;;;5024894;28;19913;-64
2022/09/13 00:31:04;;;;;;;;;;;28.10;90.60;;;;;;5025431;28;20093;-62
2022/09/13 00:33:31;;;;;;;;;;;28.10;90.60;;;;;;5024427;28;20193;-62
2022/09/13 00:36:04;;;;;;;;;;;28.10;90.60;;;;;;5024689;28;19913;-59
2022/09/13 00:38:30;;;;;;;;;;;28.10;90.60;;;;;;5024398;28;19909;-59
2022/09/13 00:40:56;;;;;;;;;;;28.20;90.60;;;;;;5025485;28;19918;-59
2022/09/13 00:43:39;;;;;;;;;;;28.10;90.70;;;;;;5024566;28;19932;-61
2022/09/13 00:46:11;;;;;;;;;;;28.00;90.90;;;;;;5024866;28;20287;-61
2022/09/13 00:48:37;;;;;;;;;;;27.90;91.10;;;;;;5024453;28;19905;-60
2022/09/13 00:51:06;;;;;;;;;;;27.90;91.30;;;;;;5024978;28;19913;-64
2022/09/13 00:53:35;;;;;;;;;;;27.80;91.40;;;;;;5024375;28;20097;-60
2022/09/13 00:56:10;;;;;;;;;;;27.80;91.40;;;;;;5024713;28;19980;-60
2022/09/13 00:58:46;;;;;;;;;;;27.80;91.30;;;;;;5024118;28;19906;-59
2022/09/13 01:01:14;;;;;;;;;;;27.80;91.50;;;;;;5024267;28;19913;-65
2022/09/13 01:03:41;;;;;;;;;;;27.80;91.80;;;;;;5024115;28;19906;-60
2022/09/13 01:06:10;;;;;;;;;;;27.80;91.90;;;;;;5024473;28;19985;-61
2022/09/13 01:08:38;;;;;;;;;;;27.80;92.10;;;;;;5024007;28;19944;-61
2022/09/13 01:11:05;;;;;;;;;;;27.80;92.40;;;;;;5024817;28;19952;-61
2022/09/13 01:13:43;;;;;;;;;;;27.80;92.70;;;;;;5011497;28;19905;-60
2022/09/13 01:16:10;;;;;;;;;;;27.70;92.50;;;;;;5025095;28;20137;-61
2022/09/13 01:19:01;;;;;;;;;;;27.70;92.50;;;;;;5023902;28;19932;-60
2022/09/13 01:21:53;;;;;;;;;;;27.70;92.60;;;;;;5024465;28;19956;-62
2022/09/13 01:24:36;;;;;;;;;;;27.60;92.60;;;;;;5024864;28;19914;-65
2022/09/13 01:27:21;;;;;;;;;;;27.60;92.50;;;;;;5024379;28;19920;-61
2022/09/13 01:30:05;;;;;;;;;;;27.50;92.50;;;;;;5024095;28;20150;-61
2022/09/13 01:32:41;;;;;;;;;;;27.50;92.40;;;;;;5024601;28;20201;-61
2022/09/13 01:35:07;;;;;;;;;;;27.50;92.20;;;;;;5025544;28;19918;-60
2022/09/13 01:37:48;;;;;;;;;;;27.60;92.00;;;;;;5025242;28;19916;-61
2022/09/13 01:40:33;;;;;;;;;;;27.60;91.90;;;;;;5019256;28;19936;-59
2022/09/13 01:43:06;;;;;;;;;;;27.60;91.90;;;;;;5018744;28;19917;-62
2022/09/13 01:45:38;;;;;;;;;;;27.70;91.90;;;;;;5017479;28;19988;-64
2022/09/13 01:48:27;;;;;;;;;;;27.70;91.80;;;;;;5015341;28;19917;-62
2022/09/13 01:51:11;;;;;;;;;;;27.70;91.80;;;;;;5024577;28;19913;-61
2022/09/13 01:53:56;;;;;;;;;;;27.70;91.80;;;;;;5022219;28;19910;-64
2022/09/13 01:56:26;;;;;;;;;;;27.70;91.70;;;;;;5003072;28;19929;-67
2022/09/13 01:59:01;;;;;;;;;;;27.70;91.60;;;;;;5012885;28;19916;-69
2022/09/13 02:01:30;;;;;;;;;;;27.70;91.60;;;;;;5023153;28;19909;-57
2022/09/13 02:04:16;;;;;;;;;;;27.70;91.60;;;;;;5023777;28;19916;-59
2022/09/13 02:06:45;;;;;;;;;;;27.80;91.80;;;;;;5023248;28;19913;-58
2022/09/13 02:09:14;;;;;;;;;;;27.80;91.50;;;;;;5023254;28;19914;-60
2022/09/13 02:11:42;;;;;;;;;;;27.80;91.30;;;;;;5027343;28;19944;-59
2022/09/13 02:14:18;;;;;;;;;;;27.90;91.30;;;;;;5027231;28;20101;-57
2022/09/13 02:16:56;;;;;;;;;;;27.90;91.30;;;;;;5026998;28;19988;-55
2022/09/13 02:19:26;;;;;;;;;;;27.90;91.20;;;;;;5018313;28;19953;-58
2022/09/13 02:21:56;;;;;;;;;;;27.90;91.30;;;;;;5007498;28;19917;-57
2022/09/13 02:24:34;;;;;;;;;;;27.90;91.30;;;;;;5023411;28;19957;-59
2022/09/13 02:27:02;;;;;;;;;;;27.90;91.30;;;;;;5007625;28;19940;-61
2022/09/13 02:29:29;;;;;;;;;;;27.90;91.10;;;;;;5007369;28;19941;-59
2022/09/13 02:32:05;;;;;;;;;;;27.80;91.00;;;;;;5007454;28;19913;-59
2022/09/13 02:34:35;;;;;;;;;;;27.80;90.80;;;;;;5007279;28;19909;-59
2022/09/13 02:37:03;;;;;;;;;;;27.80;90.90;;;;;;5006005;28;19913;-58
2022/09/13 02:39:30;;;;;;;;;;;27.70;91.00;;;;;;5006513;28;19906;-58
2022/09/13 02:42:00;;;;;;;;;;;27.70;91.10;;;;;;5006617;28;19921;-62
2022/09/13 02:44:36;;;;;;;;;;;27.60;91.20;;;;;;5022848;28;19909;-58
2022/09/13 02:47:13;;;;;;;;;;;27.50;91.30;;;;;;5006971;28;19918;-58
2022/09/13 02:49:39;;;;;;;;;;;27.50;91.40;;;;;;5007079;28;20252;-60
2022/09/13 02:52:22;;;;;;;;;;;27.50;91.50;;;;;;5007208;28;20098;-61
2022/09/13 02:54:51;;;;;;;;;;;27.40;91.40;;;;;;5006909;28;19932;-59
2022/09/13 02:57:27;;;;;;;;;;;27.40;91.50;;;;;;5007058;28;19957;-56
2022/09/13 02:59:53;;;;;;;;;;;27.40;91.50;;;;;;5006797;28;20250;-58
2022/09/13 03:02:21;;;;;;;;;;;27.40;91.60;;;;;;5006519;28;19921;-60
2022/09/13 03:04:49;;;;;;;;;;;27.30;91.50;;;;;;5006789;28;19909;-57
2022/09/13 03:07:15;;;;;;;;;;;27.30;91.50;;;;;;5006922;28;19930;-58
2022/09/13 03:09:46;;;;;;;;;;;27.30;91.50;;;;;;5006684;28;19910;-61
2022/09/13 03:12:15;;;;;;;;;;;27.30;91.70;;;;;;5006880;28;19941;-59
2022/09/13 03:14:59;;;;;;;;;;;27.30;91.60;;;;;;5006452;28;20248;-59
2022/09/13 03:17:40;;;;;;;;;;;27.30;91.80;;;;;;5006706;28;19985;-57
2022/09/13 03:20:08;;;;;;;;;;;27.40;91.50;;;;;;5006294;28;19910;-58
2022/09/13 03:22:57;;;;;;;;;;;27.40;91.60;;;;;;5006876;28;19914;-59
2022/09/13 03:25:42;;;;;;;;;;;27.40;91.50;;;;;;5006572;28;19917;-59
2022/09/13 03:28:09;;;;;;;;;;;27.50;91.50;;;;;;5025566;28;19920;-57
2022/09/13 03:30:37;;;;;;;;;;;27.50;91.50;;;;;;5025640;28;19980;-59
2022/09/13 03:33:09;;;;;;;;;;;27.50;91.50;;;;;;5022669;28;19960;-57
2022/09/13 03:35:41;;;;;;;;;;;27.50;91.50;;;;;;5012829;28;19917;-57
2022/09/13 03:38:10;;;;;;;;;;;27.50;91.50;;;;;;5010244;28;19921;-58
2022/09/13 03:40:42;;;;;;;;;;;27.50;91.40;;;;;;5014576;28;19910;-57
2022/09/13 03:43:24;;;;;;;;;;;27.50;91.50;;;;;;5017116;28;19918;-58
2022/09/13 03:45:53;;;;;;;;;;;27.60;91.40;;;;;;5017681;28;19922;-58
2022/09/13 03:48:20;;;;;;;;;;;27.50;91.40;;;;;;5025592;28;20220;-58
2022/09/13 03:50:46;;;;;;;;;;;27.50;91.50;;;;;;5025217;28;19906;-57
2022/09/13 03:53:14;;;;;;;;;;;27.50;91.50;;;;;;5023737;28;19920;-57
2022/09/13 03:55:43;;;;;;;;;;;27.60;91.50;;;;;;5023628;28;20011;-58
2022/09/13 03:58:13;;;;;;;;;;;27.60;91.50;;;;;;5020324;28;19992;-58
2022/09/13 04:00:40;;;;;;;;;;;27.60;91.50;;;;;;5013897;28;20213;-58
2022/09/13 04:03:06;;;;;;;;;;;27.60;91.40;;;;;;5005864;28;19910;-58
2022/09/13 04:05:35;;;;;;;;;;;27.50;91.40;;;;;;5018733;28;19921;-57
2022/09/13 04:08:04;;;;;;;;;;;27.60;91.60;;;;;;5019624;28;20208;-59
2022/09/13 04:10:31;;;;;;;;;;;27.60;91.40;;;;;;5023782;28;20180;-58
2022/09/13 04:13:01;;;;;;;;;;;27.60;91.50;;;;;;5024021;28;19914;-58
2022/09/13 04:15:27;;;;;;;;;;;27.60;91.50;;;;;;5024781;28;19905;-58
2022/09/13 04:17:53;;;;;;;;;;;27.60;91.50;;;;;;5025467;28;20158;-58
2022/09/13 04:20:20;;;;;;;;;;;27.60;91.50;;;;;;5024904;28;19906;-59
2022/09/13 04:22:56;;;;;;;;;;;27.60;91.50;;;;;;5025241;28;19921;-58
2022/09/13 04:25:23;;;;;;;;;;;27.60;91.60;;;;;;5025084;28;20075;-58
2022/09/13 04:27:54;;;;;;;;;;;27.60;91.60;;;;;;5025313;28;19914;-54
2022/09/13 04:30:20;;;;;;;;;;;27.50;91.60;;;;;;5024363;28;19910;-59
2022/09/13 04:32:46;;;;;;;;;;;27.60;91.60;;;;;;5024239;28;19909;-58
2022/09/13 04:35:13;;;;;;;;;;;27.60;91.60;;;;;;5024709;28;19909;-58
2022/09/13 04:37:40;;;;;;;;;;;27.60;91.60;;;;;;5025007;28;19913;-60
2022/09/13 04:40:06;;;;;;;;;;;27.50;91.60;;;;;;5024214;28;19909;-59
2022/09/13 04:42:34;;;;;;;;;;;27.50;91.60;;;;;;5025201;28;19949;-60
2022/09/13 04:45:00;;;;;;;;;;;27.50;91.60;;;;;;5023590;28;19913;-59
2022/09/13 04:47:27;;;;;;;;;;;27.60;91.70;;;;;;5021013;28;19949;-60
2022/09/13 04:49:53;;;;;;;;;;;27.50;91.70;;;;;;5024447;28;19912;-59
2022/09/13 04:52:19;;;;;;;;;;;27.50;91.70;;;;;;5024731;28;19956;-59
2022/09/13 04:54:46;;;;;;;;;;;27.50;91.70;;;;;;5024563;28;20156;-59
2022/09/13 04:57:13;;;;;;;;;;;27.50;91.80;;;;;;5024662;28;19921;-61
2022/09/13 04:59:39;;;;;;;;;;;27.50;91.70;;;;;;5024365;28;20172;-59
2022/09/13 05:02:06;;;;;;;;;;;27.40;91.60;;;;;;5024739;28;19971;-59
2022/09/13 05:04:32;;;;;;;;;;;27.40;91.60;;;;;;5024489;28;19909;-59
2022/09/13 05:06:58;;;;;;;;;;;27.40;91.60;;;;;;5024370;28;20221;-59
2022/09/13 05:09:24;;;;;;;;;;;27.40;91.50;;;;;;5024516;28;19916;-59
2022/09/13 05:11:50;;;;;;;;;;;27.40;91.50;;;;;;5024675;28;19945;-59
2022/09/13 05:14:16;;;;;;;;;;;27.40;91.40;;;;;;5024176;28;19929;-59
2022/09/13 05:16:42;;;;;;;;;;;27.40;91.40;;;;;;5024231;28;19914;-59
2022/09/13 05:19:09;;;;;;;;;;;27.40;91.50;;;;;;5024290;28;19977;-60
2022/09/13 05:21:35;;;;;;;;;;;27.40;91.50;;;;;;5023543;28;19944;-59
2022/09/13 05:24:01;;;;;;;;;;;27.40;91.60;;;;;;5024124;28;19944;-59
2022/09/13 05:26:30;;;;;;;;;;;27.40;91.50;;;;;;5024230;28;19991;-58
2022/09/13 05:28:57;;;;;;;;;;;27.30;91.50;;;;;;5024193;28;19916;-59
2022/09/13 05:31:24;;;;;;;;;;;27.30;91.60;;;;;;5024159;28;19914;-59
2022/09/13 05:33:55;;;;;;;;;;;27.30;91.60;;;;;;5023189;28;19910;-59
2022/09/13 05:36:21;;;;;;;;;;;27.30;91.60;;;;;;5024206;28;19920;-59
2022/09/13 05:38:47;;;;;;;;;;;27.30;91.60;;;;;;5024345;28;20240;-58
2022/09/13 05:41:14;;;;;;;;;;;27.30;91.60;;;;;;5024135;28;20089;-57
2022/09/13 05:43:40;;;;;;;;;;;27.30;91.60;;;;;;5024107;28;19916;-57
2022/09/13 05:46:11;;;;;;;;;;;27.30;91.60;;;;;;5027373;28;19936;-58
2022/09/13 05:48:37;;;;;;;;;;;27.30;91.60;;;;;;5027769;28;19956;-60
2022/09/13 05:51:09;;;;;;;;;;;27.30;91.60;;;;;;5027623;28;19905;-55
2022/09/13 05:53:36;;;;;;;;;;;27.30;91.60;;;;;;5027705;28;20109;-59
2022/09/13 05:56:03;;;;;;;;;;;27.30;91.60;;;;;;5027427;28;20157;-56
2022/09/13 05:58:29;;;;;;;;;;;27.30;91.70;;;;;;5027466;28;19909;-58
2022/09/13 06:00:55;;;;;;;;;;;27.30;91.70;;;;;;5027488;28;19959;-59
2022/09/13 06:03:23;;;;;;;;;;;27.30;91.70;;;;;;5027652;28;19909;-58
2022/09/13 06:05:49;;;;;;;;;;;27.30;91.80;;;;;;5027224;28;19913;-58
2022/09/13 06:08:15;;;;;;;;;;;27.30;91.80;;;;;;5027384;28;19913;-57
2022/09/13 06:10:41;;;;;;;;;;;27.30;91.80;;;;;;5027373;28;20137;-55
2022/09/13 06:13:07;;;;;;;;;;;27.30;91.80;;;;;;5027756;28;19917;-57
2022/09/13 06:15:33;;;;;;;;;;;27.30;91.80;;;;;;5027176;28;19905;-62
2022/09/13 06:17:59;;;;;;;;;;;27.30;91.90;;;;;;5027134;28;19913;-58
2022/09/13 06:20:25;;;;;;;;;;;27.30;91.90;;;;;;5027192;28;19969;-58
2022/09/13 06:22:52;;;;;;;;;;;27.30;91.90;;;;;;5027426;28;19936;-61
2022/09/13 06:25:18;;;;;;;;;;;27.30;91.90;;;;;;5027086;28;19959;-58
2022/09/13 06:27:44;;;;;;;;;;;27.30;91.90;;;;;;5027465;28;19981;-60
2022/09/13 06:30:11;;;;;;;;;;;27.30;91.80;;;;;;5026892;28;19910;-58
2022/09/13 06:32:38;;;;;;;;;;;27.30;91.90;;;;;;5027280;28;19956;-58
2022/09/13 06:35:05;;;;;;;;;;;27.30;92.00;;;;;;5026903;28;19913;-58
2022/09/13 06:37:31;;;;;;;;;;;27.20;92.00;;;;;;5027116;28;19917;-59
2022/09/13 06:39:57;;;;;;;;;;;27.30;92.10;;;;;;5026800;28;19909;-59
2022/09/13 06:42:23;;;;;;;;;;;27.20;92.10;;;;;;5027108;28;19914;-55
2022/09/13 06:44:49;;;;;;;;;;;27.20;92.00;;;;;;5026635;28;19928;-56
2022/09/13 06:47:15;;;;;;;;;;;27.20;92.00;;;;;;5026261;28;19967;-56
2022/09/13 06:49:41;;;;;;;;;;;27.20;92.10;;;;;;5026417;28;19948;-58
2022/09/13 06:52:08;;;;;;;;;;;27.20;92.20;;;;;;5026780;28;19920;-57
2022/09/13 06:54:34;;;;;;;;;;;27.20;92.20;;;;;;5026293;28;19921;-59
2022/09/13 06:57:02;;;;;;;;;;;27.20;92.40;;;;;;5026431;28;19921;-59
2022/09/13 06:59:28;;;;;;;;;;;27.20;92.20;;;;;;5026748;28;19909;-64
2022/09/13 07:01:54;;;;;;;;;;;27.20;92.20;;;;;;5025057;28;19909;-57
2022/09/13 07:04:21;;;;;;;;;;;27.20;92.10;;;;;;5026360;28;20221;-58
2022/09/13 07:06:48;;;;;;;;;;;27.20;92.20;;;;;;5026327;28;20035;-58
2022/09/13 07:09:19;;;;;;;;;;;27.20;92.20;;;;;;5026429;28;19917;-57
2022/09/13 07:11:46;;;;;;;;;;;27.20;92.20;;;;;;5026301;28;19917;-56
2022/09/13 07:14:16;;;;;;;;;;;27.20;92.20;;;;;;5026125;28;19933;-56
2022/09/13 07:16:42;;;;;;;;;;;27.20;92.20;;;;;;5026265;28;19913;-56
2022/09/13 07:19:15;;;;;;;;;;;27.20;92.30;;;;;;5026061;28;20265;-57
2022/09/13 07:21:42;;;;;;;;;;;27.20;92.50;;;;;;5026072;28;19985;-53
2022/09/13 07:24:09;;;;;;;;;;;27.20;92.70;;;;;;5025928;28;19976;-55
2022/09/13 07:26:35;;;;;;;;;;;27.10;92.80;;;;;;5025925;28;19999;-58
2022/09/13 07:29:03;;;;;;;;;;;27.20;92.90;;;;;;5025818;28;19906;-59
2022/09/13 07:31:31;;;;;;;;;;;27.10;93.00;;;;;;5026089;28;19913;-56
2022/09/13 07:33:58;;;;;;;;;;;27.10;93.00;;;;;;5025790;28;19910;-57
2022/09/13 07:36:25;;;;;;;;;;;27.10;92.90;;;;;;5025744;28;19935;-56
2022/09/13 07:38:51;;;;;;;;;;;27.00;92.70;;;;;;5025684;28;19948;-57
2022/09/13 07:41:18;;;;;;;;;;;27.00;92.90;;;;;;5025698;28;19964;-57
2022/09/13 07:43:45;;;;;;;;;;;27.00;92.80;;;;;;5025546;28;20186;-57
2022/09/13 07:46:12;;;;;;;;;;;27.00;92.70;;;;;;5025373;28;19925;-59
2022/09/13 07:48:40;;;;;;;;;;;26.90;92.70;;;;;;5025538;28;19948;-57
2022/09/13 07:51:08;;;;;;;;;;;26.90;92.70;;;;;;5025271;28;19906;-56
2022/09/13 07:53:35;;;;;;;;;;;26.90;92.70;;;;;;5025539;28;19910;-56
2022/09/13 07:56:02;;;;;;;;;;;26.90;92.70;;;;;;5025299;28;19975;-56
2022/09/13 07:58:28;;;;;;;;;;;26.90;92.70;;;;;;5025226;28;20189;-55
2022/09/13 08:00:58;;;;;;;;;;;26.90;92.70;;;;;;5025562;28;19947;-54
2022/09/13 08:03:24;;;;;;;;;;;26.90;92.60;;;;;;5025276;28;19917;-58
2022/09/13 08:05:50;;;;;;;;;;;26.80;92.50;;;;;;5024926;28;19988;-58
2022/09/13 08:08:18;;;;;;;;;;;26.90;92.60;;;;;;5024607;28;19917;-56
2022/09/13 08:10:44;;;;;;;;;;;26.80;92.70;;;;;;5025159;28;20028;-58
2022/09/13 08:13:11;;;;;;;;;;;26.80;92.70;;;;;;5025579;28;19956;-57
2022/09/13 08:15:37;;;;;;;;;;;26.80;92.60;;;;;;5025016;28;19959;-59
2022/09/13 08:18:04;;;;;;;;;;;26.80;92.70;;;;;;5025534;28;19941;-56
2022/09/13 08:20:30;;;;;;;;;;;26.80;92.60;;;;;;5025088;28;19912;-57
2022/09/13 08:22:56;;;;;;;;;;;26.80;92.70;;;;;;5025297;28;20174;-60
2022/09/13 08:25:23;;;;;;;;;;;26.80;92.70;;;;;;5024839;28;19951;-57
2022/09/13 08:27:49;;;;;;;;;;;26.80;92.70;;;;;;5025258;28;19952;-59
2022/09/13 08:30:15;;;;;;;;;;;26.80;92.70;;;;;;5024736;28;19935;-58
2022/09/13 08:32:41;;;;;;;;;;;26.80;92.70;;;;;;5025201;28;20203;-59
2022/09/13 08:35:07;;;;;;;;;;;26.70;92.60;;;;;;5024797;28;19905;-54
2022/09/13 08:37:33;;;;;;;;;;;26.70;92.70;;;;;;5024985;28;19913;-55
2022/09/13 08:40:00;;;;;;;;;;;26.70;92.70;;;;;;5024687;28;19975;-58
2022/09/13 08:42:38;;;;;;;;;;;26.70;92.70;;;;;;5025082;28;19913;-56
2022/09/13 08:45:04;;;;;;;;;;;26.70;92.60;;;;;;5024412;28;19917;-56
2022/09/13 08:47:39;;;;;;;;;;;26.70;92.70;;;;;;5024965;28;19914;-57
2022/09/13 08:50:11;;;;;;;;;;;26.70;92.70;;;;;;5024439;28;19944;-57
2022/09/13 08:52:44;;;;;;;;;;;26.70;92.70;;;;;;5024868;28;19913;-54
2022/09/13 08:55:19;;;;;;;;;;;26.70;92.70;;;;;;5024502;28;19909;-59
2022/09/13 08:57:52;;;;;;;;;;;26.60;92.70;;;;;;5024937;28;19925;-59
2022/09/13 09:00:37;;;;;;;;;;;26.60;92.80;;;;;;5024415;28;19916;-56
2022/09/13 09:03:10;;;;;;;;;;;26.60;92.80;;;;;;5024989;28;19917;-56
2022/09/13 09:05:46;;;;;;;;;;;26.60;92.80;;;;;;5024346;28;19913;-57
2022/09/13 09:08:26;;;;;;;;;;;26.60;92.90;;;;;;5024253;28;19921;-55
2022/09/13 09:10:52;;;;;;;;;;;26.60;92.90;;;;;;5024311;28;19913;-59
2022/09/13 09:13:18;;;;;;;;;;;26.60;92.90;;;;;;5024245;28;20201;-58
2022/09/13 09:15:50;;;;;;;;;;;26.60;92.90;;;;;;5024435;28;19913;-55
2022/09/13 09:18:19;;;;;;;;;;;26.60;93.00;;;;;;5025165;28;19913;-54
2022/09/13 09:20:50;;;;;;;;;;;26.60;93.00;;;;;;5028151;28;19909;-58
2022/09/13 09:23:25;;;;;;;;;;;26.60;93.00;;;;;;5028352;28;19988;-57
2022/09/13 09:25:56;;;;;;;;;;;26.60;93.00;;;;;;5027831;28;20019;-56
2022/09/13 09:28:24;;;;;;;;;;;26.60;93.00;;;;;;5028124;28;19916;-61
2022/09/13 09:31:01;;;;;;;;;;;26.60;93.00;;;;;;5028287;28;19933;-57
2022/09/13 09:33:39;;;;;;;;;;;26.60;92.90;;;;;;5027006;28;19910;-56
2022/09/13 09:36:31;;;;;;;;;;;26.60;92.90;;;;;;5027976;28;19916;-57
2022/09/13 09:38:57;;;;;;;;;;;26.60;93.00;;;;;;5025977;28;19944;-60
2022/09/13 09:41:28;;;;;;;;;;;26.60;93.00;;;;;;5027996;28;20250;-60
2022/09/13 09:44:00;;;;;;;;;;;26.60;93.10;;;;;;5027692;28;19909;-59
2022/09/13 09:46:29;;;;;;;;;;;26.60;93.10;;;;;;5027830;28;20004;-59
2022/09/13 09:48:58;;;;;;;;;;;26.60;93.10;;;;;;5027775;28;20235;-59
2022/09/13 09:51:27;;;;;;;;;;;26.50;93.10;;;;;;5027843;28;20293;-56
2022/09/13 09:53:58;;;;;;;;;;;26.60;93.20;;;;;;5027673;28;19905;-58
2022/09/13 09:56:27;;;;;;;;;;;26.50;93.20;;;;;;5027462;28;20189;-59
2022/09/13 09:58:54;;;;;;;;;;;26.50;93.20;;;;;;5027577;28;19905;-57
2022/09/13 10:01:33;;;;;;;;;;;26.50;93.30;;;;;;5027570;28;19914;-58
2022/09/13 10:04:02;;;;;;;;;;;26.50;93.30;;;;;;5027382;28;19980;-59
2022/09/13 10:06:29;;;;;;;;;;;26.50;93.40;;;;;;5027339;28;19917;-59
2022/09/13 10:09:04;;;;;;;;;;;26.50;93.30;;;;;;5027341;28;19910;-59
2022/09/13 10:11:37;;;;;;;;;;;26.50;93.30;;;;;;5027411;28;19913;-60
2022/09/13 10:14:04;;;;;;;;;;;26.50;93.30;;;;;;5027369;28;20202;-60
2022/09/13 10:16:30;;;;;;;;;;;26.50;93.30;;;;;;5027086;28;20164;-59
2022/09/13 10:19:35;;;;;;;;;;;26.50;93.20;;;;;;5027187;28;19912;-59
2022/09/13 10:22:02;;;;;;;;;;;26.40;93.30;;;;;;4986273;28;20263;-59
2022/09/13 10:24:29;;;;;;;;;;;26.40;93.10;;;;;;4986465;28;19910;-60
2022/09/13 10:26:56;;;;;;;;;;;26.40;93.10;;;;;;5005808;28;20201;-61
2022/09/13 10:29:22;;;;;;;;;;;26.40;93.00;;;;;;5027048;28;19932;-58
2022/09/13 10:31:52;;;;;;;;;;;26.40;93.00;;;;;;5025619;28;19984;-59
2022/09/13 10:34:23;;;;;;;;;;;26.40;92.90;;;;;;5026808;28;20166;-57
2022/09/13 10:36:49;;;;;;;;;;;26.40;92.90;;;;;;5027058;28;19913;-56
2022/09/13 10:39:17;;;;;;;;;;;26.40;92.90;;;;;;5026970;28;19917;-57
2022/09/13 10:41:49;;;;;;;;;;;26.40;92.90;;;;;;5026827;28;19918;-58
2022/09/13 10:44:26;;;;;;;;;;;26.40;92.90;;;;;;5026757;28;19910;-57
2022/09/13 10:46:52;;;;;;;;;;;26.40;92.90;;;;;;5026626;28;19918;-57
2022/09/13 10:49:37;;;;;;;;;;;26.40;92.90;;;;;;5026840;28;19992;-58
2022/09/13 10:52:22;;;;;;;;;;;26.40;92.90;;;;;;5026890;28;20185;-59
2022/09/13 10:54:48;;;;;;;;;;;26.30;92.80;;;;;;5026815;28;19909;-60
2022/09/13 10:57:46;;;;;;;;;;;26.30;92.80;;;;;;5026731;28;19921;-57
2022/09/13 11:00:16;;;;;;;;;;;26.30;92.70;;;;;;5004137;28;19909;-59
2022/09/13 11:02:42;;;;;;;;;;;26.30;92.60;;;;;;5026724;28;19920;-59
2022/09/13 11:05:08;;;;;;;;;;;26.40;92.70;;;;;;5026228;28;19972;-59
2022/09/13 11:07:43;;;;;;;;;;;26.30;92.50;;;;;;5025733;28;19921;-56
2022/09/13 11:10:14;;;;;;;;;;;26.30;92.50;;;;;;5025585;28;19909;-59
2022/09/13 11:12:56;;;;;;;;;;;26.30;92.40;;;;;;5025323;28;19917;-59
2022/09/13 11:15:29;;;;;;;;;;;26.30;92.40;;;;;;5026372;28;20083;-60
2022/09/13 11:17:58;;;;;;;;;;;26.30;92.30;;;;;;5026032;28;19914;-58
2022/09/13 11:20:53;;;;;;;;;;;26.40;92.40;;;;;;5020340;28;19949;-57
2022/09/13 11:23:22;;;;;;;;;;;26.40;92.30;;;;;;4998187;28;19914;-54
2022/09/13 11:26:01;;;;;;;;;;;26.40;92.40;;;;;;5024986;28;20233;-60
2022/09/13 11:28:43;;;;;;;;;;;26.40;92.40;;;;;;5025956;28;19916;-58
2022/09/13 11:31:10;;;;;;;;;;;26.40;92.40;;;;;;5021537;28;19988;-57
2022/09/13 11:33:42;;;;;;;;;;;26.40;92.30;;;;;;5026399;28;19909;-58
2022/09/13 11:36:14;;;;;;;;;;;26.30;92.20;;;;;;5025968;28;19935;-56
2022/09/13 11:38:46;;;;;;;;;;;26.40;92.20;;;;;;5025942;28;19956;-58
2022/09/13 11:41:22;;;;;;;;;;;26.40;92.30;;;;;;5025731;28;19913;-59
2022/09/13 11:43:51;;;;;;;;;;;26.30;92.30;;;;;;5025541;28;20024;-57
2022/09/13 11:46:32;;;;;;;;;;;26.30;92.30;;;;;;5025529;28;19917;-59
2022/09/13 11:48:59;;;;;;;;;;;26.40;92.40;;;;;;5025517;28;19944;-57
2022/09/13 11:51:31;;;;;;;;;;;26.40;92.50;;;;;;5025846;28;19929;-60
2022/09/13 11:54:09;;;;;;;;;;;26.40;92.70;;;;;;5023966;28;19932;-57
2022/09/13 11:56:42;;;;;;;;;;;26.40;92.50;;;;;;5024456;28;19921;-55
2022/09/13 11:59:28;;;;;;;;;;;26.40;92.60;;;;;;5025496;28;19910;-60
2022/09/13 12:01:57;;;;;;;;;;;26.40;92.70;;;;;;5025025;28;19959;-59
2022/09/13 12:04:29;;;;;;;;;;;26.40;92.50;;;;;;5025480;28;19909;-59
2022/09/13 12:06:59;;;;;;;;;;;26.40;92.60;;;;;;5025266;28;19924;-63
2022/09/13 12:09:28;;;;;;;;;;;26.40;92.50;;;;;;5024147;28;19951;-58
2022/09/13 12:12:00;;;;;;;;;;;26.50;92.70;;;;;;5009081;28;19949;-57
2022/09/13 12:14:29;;;;;;;;;;;26.50;92.80;;;;;;5004689;28;20109;-57
2022/09/13 12:16:58;;;;;;;;;;;26.50;92.80;;;;;;5005823;28;19960;-60
2022/09/13 12:19:42;;;;;;;;;;;26.50;92.80;;;;;;5005904;28;19906;-58
2022/09/13 12:22:08;;;;;;;;;;;26.60;92.80;;;;;;5006162;28;20182;-56
2022/09/13 12:24:41;;;;;;;;;;;26.60;93.00;;;;;;5025102;28;20078;-56
2022/09/13 12:27:25;;;;;;;;;;;26.60;93.00;;;;;;5025079;28;19921;-59
2022/09/13 12:29:59;;;;;;;;;;;26.60;92.90;;;;;;5025253;28;19977;-54
2022/09/13 12:32:25;;;;;;;;;;;26.60;92.90;;;;;;5024356;28;19913;-59
2022/09/13 12:35:00;;;;;;;;;;;26.60;92.90;;;;;;5024795;28;20219;-59
2022/09/13 12:37:48;;;;;;;;;;;26.60;93.00;;;;;;5025081;28;19914;-54
2022/09/13 12:40:26;;;;;;;;;;;26.70;93.10;;;;;;5023720;28;19941;-59
2022/09/13 12:42:58;;;;;;;;;;;26.70;93.20;;;;;;5023082;28;19960;-56
2022/09/13 12:45:36;;;;;;;;;;;26.70;93.20;;;;;;5024980;28;19909;-59
2022/09/13 12:48:10;;;;;;;;;;;26.70;93.00;;;;;;5023340;28;19915;-59
2022/09/13 12:50:52;;;;;;;;;;;26.70;92.90;;;;;;5024679;28;19910;-57
2022/09/13 12:53:36;;;;;;;;;;;26.70;92.80;;;;;;5024079;28;19913;-60
2022/09/13 12:56:02;;;;;;;;;;;26.70;92.80;;;;;;5024361;28;20228;-61
2022/09/13 12:58:38;;;;;;;;;;;26.70;92.90;;;;;;5024380;28;19910;-58
2022/09/13 13:01:11;;;;;;;;;;;26.70;92.70;;;;;;5024754;28;19910;-58
2022/09/13 13:03:52;;;;;;;;;;;26.70;92.80;;;;;;5024465;28;19910;-60
2022/09/13 13:06:21;;;;;;;;;;;26.80;93.00;;;;;;5024467;28;19918;-59
2022/09/13 13:08:50;;;;;;;;;;;26.70;92.90;;;;;;5024470;28;19910;-58
2022/09/13 13:11:19;;;;;;;;;;;26.80;93.00;;;;;;5024265;28;19921;-56
2022/09/13 13:13:52;;;;;;;;;;;26.80;93.10;;;;;;5024431;28;19940;-55
2022/09/13 13:16:23;;;;;;;;;;;26.80;94.30;;;;;;5024336;28;20189;-59
2022/09/13 13:18:54;;;;;;;;;;;26.80;94.80;;;;;;5024374;28;19992;-56
2022/09/13 13:21:38;;;;;;;;;;;26.80;95.20;;;;;;5025010;28;19921;-53
2022/09/13 13:24:18;;;;;;;;;;;26.80;95.10;;;;;;5024456;28;19917;-54
2022/09/13 13:26:47;;;;;;;;;;;26.80;94.80;;;;;;5024471;28;19917;-59
2022/09/13 13:29:22;;;;;;;;;;;26.80;94.80;;;;;;5024191;28;19913;-55
2022/09/13 13:32:03;;;;;;;;;;;26.80;94.70;;;;;;5023532;28;19914;-54
2022/09/13 13:34:29;;;;;;;;;;;26.90;94.50;;;;;;5023770;28;19947;-56
2022/09/13 13:36:58;;;;;;;;;;;26.90;94.50;;;;;;5024277;28;19921;-56
2022/09/13 13:39:24;;;;;;;;;;;26.90;94.60;;;;;;5022884;28;19910;-54
2022/09/13 13:41:54;;;;;;;;;;;26.90;94.80;;;;;;5022686;28;19917;-57
2022/09/13 13:44:20;;;;;;;;;;;26.90;94.80;;;;;;5021591;28;19955;-60
2022/09/13 13:46:47;;;;;;;;;;;26.90;94.80;;;;;;5015669;28;19957;-56
2022/09/13 13:49:29;;;;;;;;;;;26.90;94.70;;;;;;5020906;28;19917;-57
2022/09/13 13:52:31;;;;;;;;;;;26.90;94.70;;;;;;5017301;28;19959;-56
2022/09/13 13:54:59;;;;;;;;;;;27.00;94.50;;;;;;5014409;28;19917;-57
2022/09/13 13:57:31;;;;;;;;;;;27.00;94.30;;;;;;5024060;28;19921;-58
2022/09/13 13:59:57;;;;;;;;;;;27.00;94.40;;;;;;5023979;28;19910;-56
2022/09/13 14:02:31;;;;;;;;;;;27.10;94.40;;;;;;5024335;28;19914;-55
2022/09/13 14:04:57;;;;;;;;;;;27.10;94.20;;;;;;5039308;28;19909;-56
2022/09/13 14:07:28;;;;;;;;;;;27.20;94.30;;;;;;5027541;28;19917;-57
2022/09/13 14:10:14;;;;;;;;;;;27.20;94.20;;;;;;5027657;28;19916;-57
2022/09/13 14:13:01;;;;;;;;;;;27.30;94.20;;;;;;4996991;28;19921;-56
2022/09/13 14:15:46;;;;;;;;;;;27.30;94.10;;;;;;5027193;28;19976;-57
2022/09/13 14:18:12;;;;;;;;;;;27.30;94.00;;;;;;5027131;28;19913;-53
2022/09/13 14:20:55;;;;;;;;;;;27.30;93.80;;;;;;5025244;28;20261;-55
2022/09/13 14:23:22;;;;;;;;;;;27.40;93.80;;;;;;5022099;28;19922;-59
2022/09/13 14:25:53;;;;;;;;;;;27.40;93.80;;;;;;5027220;28;19914;-56
2022/09/13 14:28:20;;;;;;;;;;;27.40;93.70;;;;;;5027171;28;19916;-55
2022/09/13 14:30:47;;;;;;;;;;;27.50;93.70;;;;;;5027114;28;19933;-55
2022/09/13 14:33:20;;;;;;;;;;;27.50;93.60;;;;;;5025941;28;19913;-55
2022/09/13 14:35:56;;;;;;;;;;;27.60;93.60;;;;;;5018159;28;20193;-57
2022/09/13 14:38:24;;;;;;;;;;;27.60;93.40;;;;;;5026838;28;19993;-55